Time;durP1;ratioP1;P1;durP2;ratioP2;P2;SDS_P1;SDS_P2;PMS_P1;PMS_P2;Temp;Humidity;BMP_temperature;BMP_pressure;BME280_temperature;BME280_humidity;BME280_pressure;Samples;Min_cycle;Max_cycle;Signal;HPM_P1;HPM_P2
2023/04/23 00:02:10;;;;;;;4.68;1.60;;;15.00;99.90;;;;;;5001297;28;20394;-78
2023/04/23 00:04:37;;;;;;;4.28;1.90;;;14.90;99.90;;;;;;5005016;28;20137;-78
2023/04/23 00:07:04;;;;;;;3.92;1.92;;;14.90;99.90;;;;;;5006299;28;20029;-78
2023/04/23 00:09:31;;;;;;;7.10;2.10;;;14.90;99.90;;;;;;5005220;28;20045;-78
2023/04/23 00:11:58;;;;;;;3.17;2.15;;;14.90;99.90;;;;;;5008299;28;20029;-78
2023/04/23 00:14:24;;;;;;;3.40;2.38;;;14.80;99.90;;;;;;5005152;28;20057;-77
2023/04/23 00:16:51;;;;;;;6.10;2.00;;;14.70;99.90;;;;;;5019481;28;20442;-77
2023/04/23 00:19:17;;;;;;;5.97;2.10;;;14.70;99.90;;;;;;5002019;28;20722;-78
2023/04/23 00:21:43;;;;;;;7.15;1.80;;;14.70;99.90;;;;;;5003623;28;20026;-78
2023/04/23 00:24:09;;;;;;;6.10;1.85;;;14.70;99.90;;;;;;5001867;28;20030;-78
2023/04/23 00:26:35;;;;;;;6.55;2.10;;;14.60;99.90;;;;;;5005972;28;20030;-78
2023/04/23 00:29:00;;;;;;;5.97;2.63;;;14.60;99.90;;;;;;5005742;28;20053;-77
2023/04/23 00:31:26;;;;;;;5.45;2.20;;;14.60;99.90;;;;;;5002027;28;20106;-77
2023/04/23 00:33:52;;;;;;;4.45;1.77;;;14.60;99.90;;;;;;5004620;28;20038;-77
2023/04/23 00:36:18;;;;;;;4.85;1.70;;;14.60;99.90;;;;;;5004222;28;20041;-78
2023/04/23 00:38:44;;;;;;;5.65;1.65;;;14.50;99.90;;;;;;5006699;28;20025;-78
2023/04/23 00:41:10;;;;;;;6.90;2.17;;;14.50;99.90;;;;;;5011523;28;20022;-78
2023/04/23 00:43:36;;;;;;;4.90;1.90;;;14.50;99.90;;;;;;5004625;28;20030;-77
2023/04/23 00:46:02;;;;;;;6.53;1.80;;;14.50;99.90;;;;;;5001475;28;20053;-78
2023/04/23 00:48:28;;;;;;;3.90;1.63;;;14.50;99.90;;;;;;5021187;28;20022;-78
2023/04/23 00:50:59;;;;;;;6.30;1.88;;;14.50;99.90;;;;;;5005553;28;20056;-79
2023/04/23 00:53:25;;;;;;;5.65;1.98;;;14.40;99.90;;;;;;5021917;28;20502;-78
2023/04/23 00:55:51;;;;;;;4.75;1.73;;;14.40;99.90;;;;;;5002737;28;20036;-78
2023/04/23 00:58:17;;;;;;;4.68;1.52;;;14.40;99.90;;;;;;5002235;28;20125;-78
2023/04/23 01:00:45;;;;;;;3.47;1.70;;;14.40;99.90;;;;;;5004870;28;20045;-78
2023/04/23 01:03:11;;;;;;;4.97;1.48;;;14.40;99.90;;;;;;5005653;28;20036;-79
2023/04/23 01:05:40;;;;;;;3.97;1.73;;;14.40;99.90;;;;;;5003870;28;20026;-79
2023/04/23 01:08:06;;;;;;;2.80;1.40;;;14.40;99.90;;;;;;5004535;28;20038;-78
2023/04/23 01:10:32;;;;;;;3.33;1.65;;;14.40;99.90;;;;;;5003124;28;20029;-78
2023/04/23 01:12:59;;;;;;;5.03;1.92;;;14.30;99.90;;;;;;5006154;28;20210;-78
2023/04/23 01:15:24;;;;;;;6.90;2.22;;;14.30;99.90;;;;;;4998312;28;20053;-78
2023/04/23 01:17:50;;;;;;;6.60;1.95;;;14.30;99.90;;;;;;5012158;28;20025;-78
2023/04/23 01:20:16;;;;;;;3.75;1.77;;;14.20;99.90;;;;;;5003391;28;20503;-78
2023/04/23 01:22:42;;;;;;;6.53;1.92;;;14.20;99.90;;;;;;5005415;28;20029;-77
2023/04/23 01:25:09;;;;;;;4.53;1.50;;;14.20;99.90;;;;;;5025318;28;20026;-78
2023/04/23 01:27:34;;;;;;;4.88;1.70;;;14.20;99.90;;;;;;5002753;28;20029;-78
2023/04/23 01:30:03;;;;;;;11.10;2.08;;;14.10;99.90;;;;;;5003331;28;20469;-78
2023/04/23 01:32:30;;;;;;;3.75;1.80;;;14.10;99.90;;;;;;4999073;28;20109;-78
2023/04/23 01:34:57;;;;;;;6.15;2.58;;;14.10;99.90;;;;;;5018225;28;20030;-78
2023/04/23 01:37:23;;;;;;;3.95;2.15;;;14.00;99.90;;;;;;4999146;28;20054;-78
2023/04/23 01:39:50;;;;;;;4.53;1.70;;;14.00;99.90;;;;;;5004056;28;20069;-78
2023/04/23 01:42:15;;;;;;;6.22;1.60;;;14.00;99.90;;;;;;5001391;28;20025;-78
2023/04/23 01:44:41;;;;;;;4.50;2.15;;;14.00;99.90;;;;;;5002275;28;20066;-78
2023/04/23 01:47:07;;;;;;;4.65;2.00;;;13.90;99.90;;;;;;5002175;28;20045;-78
2023/04/23 01:49:33;;;;;;;2.83;1.63;;;13.90;99.90;;;;;;5019105;28;20113;-78
2023/04/23 01:51:58;;;;;;;2.00;1.50;;;13.90;99.90;;;;;;5003344;28;20025;-77
2023/04/23 01:54:24;;;;;;;5.68;1.98;;;13.80;99.90;;;;;;5003348;28;20026;-77
2023/04/23 01:56:53;;;;;;;2.97;1.70;;;13.80;99.90;;;;;;5003130;28;20081;-79
2023/04/23 01:59:20;;;;;;;3.03;1.50;;;13.80;99.90;;;;;;5001490;28;20021;-78
2023/04/23 02:01:46;;;;;;;3.30;1.35;;;13.70;99.90;;;;;;5004265;28;20461;-79
2023/04/23 02:04:13;;;;;;;3.83;1.65;;;13.70;99.90;;;;;;4996807;28;20029;-78
2023/04/23 02:06:41;;;;;;;2.97;1.70;;;13.70;99.90;;;;;;5003091;28;20022;-79
2023/04/23 02:09:07;;;;;;;3.25;1.67;;;13.70;99.90;;;;;;4999481;28;20033;-78
2023/04/23 02:11:32;;;;;;;6.60;2.00;;;13.70;99.90;;;;;;5001155;28;20022;-78
2023/04/23 02:13:59;;;;;;;3.20;1.98;;;13.70;99.90;;;;;;5004150;28;20029;-79
2023/04/23 02:16:25;;;;;;;4.60;1.70;;;13.70;99.90;;;;;;5002563;28;20030;-79
2023/04/23 02:18:51;;;;;;;8.38;1.92;;;13.70;99.90;;;;;;5000581;28;20033;-78
2023/04/23 02:21:16;;;;;;;5.35;1.60;;;13.70;99.90;;;;;;5015250;28;20441;-79
2023/04/23 02:23:42;;;;;;;3.45;2.30;;;13.70;99.90;;;;;;5001797;28;20030;-78
2023/04/23 02:26:08;;;;;;;3.50;2.00;;;13.70;99.90;;;;;;5002763;28;20029;-78
2023/04/23 02:28:33;;;;;;;3.20;1.95;;;13.70;99.90;;;;;;5003737;28;20431;-79
2023/04/23 02:30:59;;;;;;;3.92;1.85;;;13.70;99.90;;;;;;5007407;28;20121;-78
2023/04/23 02:33:25;;;;;;;4.75;2.22;;;13.70;99.90;;;;;;5002554;28;20088;-78
2023/04/23 02:35:51;;;;;;;4.15;2.03;;;13.70;99.90;;;;;;5001562;28;20038;-79
2023/04/23 02:38:16;;;;;;;2.22;1.48;;;13.70;99.90;;;;;;5002303;28;20038;-79
2023/04/23 02:40:42;;;;;;;3.78;1.77;;;13.60;99.90;;;;;;5004573;28;20076;-79
2023/04/23 02:43:08;;;;;;;3.30;2.13;;;13.60;99.90;;;;;;5001533;28;20022;-78
2023/04/23 02:45:33;;;;;;;4.38;1.95;;;13.60;99.90;;;;;;5002278;28;20034;-79
2023/04/23 02:47:59;;;;;;;4.90;1.80;;;13.60;99.90;;;;;;5001921;28;20053;-79
2023/04/23 02:50:25;;;;;;;5.05;1.95;;;13.50;99.90;;;;;;5014313;28;20529;-78
2023/04/23 02:52:51;;;;;;;4.22;1.67;;;13.50;99.90;;;;;;5001970;28;20105;-79
2023/04/23 02:55:16;;;;;;;6.55;2.58;;;13.50;99.90;;;;;;5006460;28;20057;-78
2023/04/23 02:57:43;;;;;;;3.10;1.65;;;13.40;99.90;;;;;;4999466;28;20041;-78
2023/04/23 03:00:11;;;;;;;2.67;1.63;;;13.40;99.90;;;;;;5000539;28;20025;-78
2023/04/23 03:02:36;;;;;;;2.92;1.90;;;13.40;99.90;;;;;;5003515;28;20026;-78
2023/04/23 03:05:03;;;;;;;4.28;1.95;;;13.40;99.90;;;;;;4997405;28;20038;-78
2023/04/23 03:07:28;;;;;;;3.20;1.90;;;13.40;99.90;;;;;;5002973;28;20041;-78
2023/04/23 03:09:54;;;;;;;4.05;1.80;;;13.40;99.90;;;;;;5001985;28;20482;-78
2023/04/23 03:12:20;;;;;;;5.18;2.10;;;13.30;99.90;;;;;;4998244;28;20030;-78
2023/04/23 03:14:45;;;;;;;3.42;1.50;;;13.30;99.90;;;;;;5007569;28;20051;-78
2023/04/23 03:17:11;;;;;;;3.10;1.52;;;13.30;99.90;;;;;;5005052;28;20029;-78
2023/04/23 03:19:37;;;;;;;3.38;1.77;;;13.30;99.90;;;;;;5018120;28;20439;-78
2023/04/23 03:22:04;;;;;;;4.10;1.15;;;13.30;99.90;;;;;;5007461;28;20022;-78
2023/04/23 03:24:34;;;;;;;2.30;1.30;;;13.20;99.90;;;;;;5006806;28;20474;-78
2023/04/23 03:27:00;;;;;;;2.22;1.30;;;13.20;99.90;;;;;;5000317;28;20033;-78
2023/04/23 03:29:26;;;;;;;4.63;1.50;;;13.20;99.90;;;;;;5004126;28;20029;-79
2023/04/23 03:31:51;;;;;;;2.85;1.17;;;13.20;99.90;;;;;;5003824;28;20076;-79
2023/04/23 03:34:17;;;;;;;3.47;1.33;;;13.20;99.90;;;;;;5006649;28;20435;-78
2023/04/23 03:36:45;;;;;;;3.65;1.38;;;13.10;99.90;;;;;;5004315;28;20111;-78
2023/04/23 03:39:10;;;;;;;4.70;2.33;;;13.10;99.90;;;;;;5019174;28;20034;-79
2023/04/23 03:41:36;;;;;;;2.85;1.30;;;13.10;99.90;;;;;;5005997;28;20092;-79
2023/04/23 03:44:02;;;;;;;1.60;1.15;;;13.10;99.90;;;;;;5008342;28;20093;-78
2023/04/23 03:46:27;;;;;;;6.90;1.65;;;13.10;99.90;;;;;;5003768;28;20054;-78
2023/04/23 03:48:53;;;;;;;2.22;1.08;;;13.10;99.90;;;;;;5004294;28;20022;-78
2023/04/23 03:51:19;;;;;;;1.60;0.95;;;13.00;99.90;;;;;;5011425;28;20037;-79
2023/04/23 03:53:45;;;;;;;3.55;1.50;;;13.00;99.90;;;;;;5004263;28;20256;-78
2023/04/23 03:56:10;;;;;;;4.20;1.90;;;13.00;99.90;;;;;;5007914;28;20095;-79
2023/04/23 03:58:37;;;;;;;3.35;1.50;;;12.90;99.90;;;;;;5003930;28;20420;-79
2023/04/23 04:01:02;;;;;;;5.18;2.00;;;12.90;99.90;;;;;;5004615;28;20100;-79
2023/04/23 04:03:28;;;;;;;3.65;1.38;;;12.90;99.90;;;;;;5006991;28;20371;-79
2023/04/23 04:05:54;;;;;;;2.63;1.17;;;12.90;99.90;;;;;;5002537;28;20030;-79
2023/04/23 04:08:19;;;;;;;2.47;1.50;;;12.90;99.90;;;;;;5009546;28;20064;-79
2023/04/23 04:10:45;;;;;;;3.60;1.48;;;12.80;99.90;;;;;;5007193;28;20458;-79
2023/04/23 04:13:11;;;;;;;2.00;1.67;;;12.80;99.90;;;;;;5003109;28;20487;-79
2023/04/23 04:15:37;;;;;;;1.88;1.27;;;12.80;99.90;;;;;;5005159;28;20029;-78
2023/04/23 04:18:02;;;;;;;3.92;1.50;;;12.80;99.90;;;;;;5006705;28;20021;-78
2023/04/23 04:20:28;;;;;;;3.00;1.63;;;12.80;99.90;;;;;;5018102;28;20033;-78
2023/04/23 04:22:54;;;;;;;2.65;1.65;;;12.80;99.90;;;;;;5003571;28;20078;-78
2023/04/23 04:25:23;;;;;;;1.85;1.48;;;12.80;99.90;;;;;;5003705;28;20094;-78
2023/04/23 04:27:49;;;;;;;3.30;1.52;;;12.80;99.90;;;;;;5007556;28;20856;-79
2023/04/23 04:30:15;;;;;;;1.95;1.10;;;12.80;99.90;;;;;;5006531;28;20955;-78
2023/04/23 04:32:41;;;;;;;1.77;1.17;;;12.80;99.90;;;;;;5020490;28;20033;-77
2023/04/23 04:35:13;;;;;;;3.53;1.58;;;12.80;99.90;;;;;;5008291;23;20196;-77
2023/04/23 04:37:42;;;;;;;4.80;1.98;;;12.70;99.90;;;;;;4990231;28;20030;-77
2023/04/23 04:40:11;;;;;;;2.55;1.45;;;12.80;99.90;;;;;;4998969;28;20650;-77
2023/04/23 04:42:41;;;;;;;2.35;1.48;;;12.80;99.90;;;;;;4989635;28;20459;-77
2023/04/23 04:45:13;;;;;;;2.10;1.55;;;12.80;99.90;;;;;;4992730;28;20030;-79
2023/04/23 04:47:39;;;;;;;2.90;1.30;;;12.70;99.90;;;;;;5007912;28;20085;-79
2023/04/23 04:50:11;;;;;;;5.32;1.80;;;12.70;99.90;;;;;;4995584;28;20105;-74
2023/04/23 04:52:39;;;;;;;2.78;1.30;;;12.80;99.90;;;;;;4994297;28;20023;-74
2023/04/23 04:55:11;;;;;;;2.65;1.60;;;12.80;99.90;;;;;;4981018;28;20030;-77
2023/04/23 04:57:40;;;;;;;3.67;1.45;;;12.70;99.90;;;;;;4993841;28;20026;-76
2023/04/23 05:00:28;;;;;;;2.83;1.27;;;12.80;99.90;;;;;;4986401;28;20026;-77
2023/04/23 05:02:54;;;;;;;3.60;0.90;;;12.80;99.90;;;;;;4995192;28;20022;-77
2023/04/23 05:05:24;;;;;;;2.20;1.20;;;12.80;99.90;;;;;;5008248;28;20093;-77
2023/04/23 05:07:50;;;;;;;2.22;1.33;;;12.80;99.90;;;;;;5013572;28;20109;-74
2023/04/23 05:10:16;;;;;;;4.07;1.50;;;12.70;99.90;;;;;;5011289;28;20348;-75
2023/04/23 05:12:45;;;;;;;1.77;1.02;;;12.80;99.90;;;;;;4992231;28;20106;-76
2023/04/23 05:15:13;;;;;;;1.17;0.93;;;12.70;99.90;;;;;;4994895;28;20446;-77
2023/04/23 05:17:40;;;;;;;1.90;1.10;;;12.80;99.90;;;;;;4992927;28;20391;-75
2023/04/23 05:20:15;;;;;;;2.03;0.98;;;12.70;99.90;;;;;;5027607;28;20034;-76
2023/04/23 05:22:42;;;;;;;3.22;1.00;;;12.70;99.90;;;;;;4998680;28;20027;-77
2023/04/23 05:25:11;;;;;;;1.55;1.00;;;12.70;99.90;;;;;;4994885;28;20034;-77
2023/04/23 05:27:37;;;;;;;3.40;1.15;;;12.80;99.90;;;;;;4991716;28;20026;-77
2023/04/23 05:30:04;;;;;;;1.27;0.85;;;12.70;99.90;;;;;;4989736;28;20023;-77
2023/04/23 05:32:31;;;;;;;1.58;0.85;;;12.70;99.90;;;;;;4992535;28;20092;-76
2023/04/23 05:35:04;;;;;;;3.35;1.02;;;12.70;99.90;;;;;;5008850;28;20034;-76
2023/04/23 05:37:29;;;;;;;0.82;0.57;;;12.70;99.90;;;;;;4994616;28;20026;-76
2023/04/23 05:39:56;;;;;;;1.67;1.00;;;12.80;99.90;;;;;;4994488;28;20135;-76
2023/04/23 05:42:22;;;;;;;2.65;0.95;;;12.80;99.90;;;;;;4989376;28;20065;-76
2023/04/23 05:44:48;;;;;;;1.08;0.80;;;12.80;99.90;;;;;;5008922;28;20422;-76
2023/04/23 05:47:20;;;;;;;1.65;1.02;;;12.80;99.90;;;;;;4990974;28;20027;-76
2023/04/23 05:49:45;;;;;;;1.70;0.82;;;12.80;99.90;;;;;;4987997;28;20029;-75
2023/04/23 05:52:11;;;;;;;1.77;0.60;;;12.80;99.90;;;;;;4990077;28;20031;-76
2023/04/23 05:54:37;;;;;;;1.45;0.57;;;12.80;99.90;;;;;;4994036;28;20026;-76
2023/04/23 05:57:04;;;;;;;0.82;0.40;;;12.80;99.90;;;;;;4987270;28;20109;-76
2023/04/23 05:59:30;;;;;;;2.25;0.43;;;12.90;99.90;;;;;;4987138;28;20029;-76
2023/04/23 06:01:55;;;;;;;1.98;0.50;;;12.90;99.90;;;;;;4992542;28;20030;-76
2023/04/23 06:04:21;;;;;;;2.53;0.60;;;12.90;99.90;;;;;;5002700;28;20032;-75
2023/04/23 06:06:47;;;;;;;2.47;0.60;;;12.90;99.90;;;;;;5007077;28;20089;-75
2023/04/23 06:09:12;;;;;;;1.80;0.60;;;13.00;99.90;;;;;;4990803;28;20022;-75
2023/04/23 06:11:38;;;;;;;1.15;0.60;;;13.00;99.90;;;;;;5007353;28;20022;-75
2023/04/23 06:14:04;;;;;;;0.98;0.75;;;13.00;99.90;;;;;;4992183;28;20106;-75
2023/04/23 06:16:30;;;;;;;1.15;0.68;;;13.00;99.90;;;;;;4992009;28;20030;-75
2023/04/23 06:18:55;;;;;;;0.80;0.60;;;13.10;99.90;;;;;;5025894;28;20038;-75
2023/04/23 06:21:22;;;;;;;0.70;0.40;;;13.10;99.90;;;;;;5002859;28;20029;-75
2023/04/23 06:23:48;;;;;;;1.58;0.77;;;13.10;99.90;;;;;;4999903;28;20515;-75
2023/04/23 06:26:13;;;;;;;1.20;0.63;;;13.20;99.90;;;;;;4996852;28;20089;-75
2023/04/23 06:28:41;;;;;;;0.98;0.60;;;13.30;99.90;;;;;;5005632;28;20110;-76
2023/04/23 06:31:07;;;;;;;0.88;0.70;;;13.40;99.90;;;;;;5004166;28;20490;-76
2023/04/23 06:33:35;;;;;;;2.03;0.60;;;13.50;99.90;;;;;;4984760;28;20338;-76
2023/04/23 06:36:01;;;;;;;2.20;0.40;;;13.60;99.90;;;;;;4988862;28;20027;-76
2023/04/23 06:38:26;;;;;;;0.82;0.50;;;13.70;99.90;;;;;;4989545;28;20038;-76
2023/04/23 06:40:52;;;;;;;1.63;0.90;;;13.80;99.90;;;;;;4985599;28;20145;-75
2023/04/23 06:43:18;;;;;;;2.17;0.50;;;13.90;99.90;;;;;;4988473;28;20022;-76
2023/04/23 06:45:46;;;;;;;1.13;0.55;;;14.00;99.90;;;;;;4993917;28;20026;-76
2023/04/23 06:48:12;;;;;;;1.00;0.52;;;14.10;99.90;;;;;;4999568;28;20045;-76
2023/04/23 06:50:39;;;;;;;1.02;0.47;;;14.10;99.90;;;;;;5005633;28;20022;-76
2023/04/23 06:53:04;;;;;;;1.67;0.57;;;14.20;99.90;;;;;;4998896;28;20117;-76
2023/04/23 06:55:33;;;;;;;0.60;0.47;;;14.20;99.90;;;;;;5012917;28;20033;-76
2023/04/23 06:58:02;;;;;;;1.92;0.40;;;14.30;99.90;;;;;;4989440;28;20105;-77
2023/04/23 07:00:31;;;;;;;1.75;0.50;;;14.40;99.90;;;;;;4990294;28;20073;-77
2023/04/23 07:02:56;;;;;;;0.32;0.30;;;14.40;99.90;;;;;;4999155;28;20044;-76
2023/04/23 07:05:25;;;;;;;0.50;0.40;;;14.40;99.90;;;;;;4992171;28;20422;-77
2023/04/23 07:07:51;;;;;;;1.38;0.60;;;14.40;99.90;;;;;;4993333;28;20112;-77
2023/04/23 07:10:20;;;;;;;1.45;0.43;;;14.40;99.90;;;;;;4997527;28;20553;-77
2023/04/23 07:12:46;;;;;;;0.77;0.45;;;14.40;99.90;;;;;;5007358;28;20432;-78
2023/04/23 07:15:18;;;;;;;1.55;0.60;;;14.40;99.90;;;;;;4992539;28;20041;-77
2023/04/23 07:17:43;;;;;;;2.25;0.55;;;14.40;99.90;;;;;;4992207;28;20125;-77
2023/04/23 07:20:12;;;;;;;1.40;0.60;;;14.50;99.90;;;;;;4994068;28;20030;-76
2023/04/23 07:22:38;;;;;;;1.15;0.60;;;14.50;99.90;;;;;;4994592;28;20495;-77
2023/04/23 07:25:10;;;;;;;1.15;0.50;;;14.60;99.90;;;;;;4994447;28;20062;-77
2023/04/23 07:27:36;;;;;;;1.08;0.35;;;14.60;99.90;;;;;;5012488;28;20872;-78
2023/04/23 07:30:02;;;;;;;2.33;0.55;;;14.70;99.90;;;;;;5009524;28;20113;-78
2023/04/23 07:32:27;;;;;;;0.93;0.43;;;14.80;99.90;;;;;;5016203;28;20044;-78
2023/04/23 07:34:56;;;;;;;0.90;0.40;;;14.80;99.90;;;;;;5011663;28;20093;-77
2023/04/23 07:37:22;;;;;;;0.90;0.50;;;14.80;99.90;;;;;;4995199;28;20344;-77
2023/04/23 07:39:48;;;;;;;0.50;0.50;;;14.80;99.90;;;;;;5002464;28;20031;-77
2023/04/23 07:42:13;;;;;;;1.50;0.60;;;14.80;99.90;;;;;;4994761;28;20027;-78
2023/04/23 07:44:39;;;;;;;0.80;0.50;;;14.80;99.90;;;;;;4992607;28;20023;-77
2023/04/23 07:47:05;;;;;;;1.58;0.50;;;14.80;99.90;;;;;;4989682;28;20030;-78
2023/04/23 07:49:31;;;;;;;1.35;0.40;;;14.90;99.90;;;;;;4991431;28;20022;-79
2023/04/23 07:51:59;;;;;;;1.45;0.60;;;14.90;99.90;;;;;;5005520;28;20908;-78
2023/04/23 07:54:40;;;;;;;0.63;0.35;;;15.10;99.90;;;;;;4996445;28;20034;-77
2023/04/23 07:57:10;;;;;;;2.00;0.63;;;15.20;99.90;;;;;;4990114;28;20420;-77
2023/04/23 07:59:38;;;;;;;1.63;0.60;;;15.30;99.90;;;;;;4989015;28;20027;-78
2023/04/23 08:02:05;;;;;;;1.80;0.70;;;15.40;99.90;;;;;;4988765;28;20398;-78
2023/04/23 08:04:33;;;;;;;2.30;0.70;;;15.40;99.90;;;;;;5003632;28;20077;-78
2023/04/23 08:06:59;;;;;;;2.60;0.80;;;15.50;99.90;;;;;;5003611;28;20030;-78
2023/04/23 08:09:25;;;;;;;2.47;0.57;;;15.60;99.90;;;;;;4993456;28;20052;-78
2023/04/23 08:12:16;;;;;;;1.48;0.70;;;15.70;99.90;;;;;;4991854;28;20515;-78
2023/04/23 08:14:42;;;;;;;1.65;0.60;;;15.80;99.90;;;;;;4990961;28;20694;-78
2023/04/23 08:17:10;;;;;;;0.77;0.60;;;15.80;99.90;;;;;;5006143;28;20450;-77
2023/04/23 08:19:36;;;;;;;1.27;0.60;;;15.80;99.90;;;;;;5001881;28;20045;-77
2023/04/23 08:22:01;;;;;;;1.15;0.70;;;15.80;99.90;;;;;;5003425;28;20027;-77
2023/04/23 08:24:27;;;;;;;3.10;0.50;;;15.70;99.90;;;;;;4988685;28;20022;-77
2023/04/23 08:26:53;;;;;;;3.17;0.65;;;15.70;99.90;;;;;;4988878;28;20076;-77
2023/04/23 08:29:18;;;;;;;1.45;0.52;;;15.70;99.90;;;;;;4990334;28;20018;-78
2023/04/23 08:31:44;;;;;;;0.30;0.30;;;15.70;99.90;;;;;;4989796;28;20157;-76
2023/04/23 08:34:10;;;;;;;1.13;0.70;;;15.80;99.90;;;;;;4989056;28;20026;-77
2023/04/23 08:36:36;;;;;;;1.23;0.65;;;15.70;99.90;;;;;;5004858;28;20039;-76
2023/04/23 08:39:02;;;;;;;1.08;0.57;;;15.70;99.90;;;;;;4988267;28;20054;-78
2023/04/23 08:41:39;;;;;;;0.60;0.50;;;15.70;99.90;;;;;;4990874;28;20053;-78
2023/04/23 08:44:39;;;;;;;3.10;0.50;;;15.80;99.90;;;;;;5006587;28;20076;-77
2023/04/23 08:47:09;;;;;;;0.90;0.55;;;15.90;99.90;;;;;;4946664;28;20050;-76
2023/04/23 08:49:44;;;;;;;2.55;0.70;;;15.90;99.90;;;;;;4986854;28;20423;-78
2023/04/23 08:52:16;;;;;;;2.47;0.75;;;16.00;99.90;;;;;;4988617;28;20062;-78
2023/04/23 08:54:46;;;;;;;2.83;0.60;;;16.00;99.90;;;;;;4990343;28;20418;-78
2023/04/23 08:57:16;;;;;;;1.63;0.57;;;16.10;99.90;;;;;;4982899;28;20364;-78
2023/04/23 08:59:43;;;;;;;2.08;0.65;;;16.10;99.90;;;;;;4988982;28;20037;-77
2023/04/23 09:02:15;;;;;;;1.00;0.60;;;16.10;99.90;;;;;;4988387;28;21159;-77
2023/04/23 09:04:45;;;;;;;1.77;0.65;;;16.20;99.90;;;;;;4988522;28;20041;-78
2023/04/23 09:07:12;;;;;;;1.30;0.52;;;16.20;99.90;;;;;;4986078;28;20038;-77
2023/04/23 09:09:39;;;;;;;2.08;0.40;;;16.30;99.90;;;;;;4989110;28;20475;-78
2023/04/23 09:12:06;;;;;;;1.35;0.50;;;16.50;99.90;;;;;;4989153;28;20142;-77
2023/04/23 09:14:44;;;;;;;0.90;0.60;;;16.60;99.90;;;;;;4988968;28;20046;-78
2023/04/23 09:17:17;;;;;;;1.30;0.60;;;16.60;99.90;;;;;;4987050;28;20068;-77
2023/04/23 09:19:54;;;;;;;2.95;0.80;;;16.70;99.90;;;;;;4988734;28;20057;-78
2023/04/23 09:22:48;;;;;;;2.35;0.70;;;16.70;99.90;;;;;;4986898;28;20057;-77
2023/04/23 09:25:16;;;;;;;1.25;0.80;;;16.70;99.90;;;;;;4987144;28;20026;-77
2023/04/23 09:27:42;;;;;;;1.20;0.60;;;16.60;99.90;;;;;;4988238;28;20113;-77
2023/04/23 09:30:10;;;;;;;1.80;0.60;;;16.70;99.90;;;;;;4985830;28;20118;-78
2023/04/23 09:32:41;;;;;;;1.27;0.70;;;16.80;99.90;;;;;;4985710;28;20076;-77
2023/04/23 09:35:14;;;;;;;2.20;0.52;;;16.80;99.90;;;;;;5004261;28;20187;-78
2023/04/23 09:37:47;;;;;;;0.82;0.60;;;16.80;99.90;;;;;;5001599;28;20376;-78
2023/04/23 09:40:18;;;;;;;1.25;0.70;;;16.70;99.90;;;;;;4985078;28;20034;-77
2023/04/23 09:42:54;;;;;;;3.08;1.02;;;16.60;99.90;;;;;;4988917;28;20026;-78
2023/04/23 09:45:28;;;;;;;1.13;0.75;;;16.70;99.90;;;;;;4985100;28;20022;-78
2023/04/23 09:47:56;;;;;;;2.03;0.80;;;16.80;99.90;;;;;;5006409;28;20034;-78
2023/04/23 09:50:41;;;;;;;1.08;0.70;;;16.70;99.90;;;;;;4987479;28;20364;-78
2023/04/23 09:53:08;;;;;;;1.90;0.88;;;16.60;99.90;;;;;;5001012;28;20026;-78
2023/04/23 09:55:38;;;;;;;1.85;0.93;;;16.60;99.90;;;;;;4989113;28;20018;-78
2023/04/23 09:58:12;;;;;;;1.80;1.00;;;16.60;99.90;;;;;;4988074;28;20077;-78
2023/04/23 10:00:39;;;;;;;2.15;1.20;;;16.60;99.90;;;;;;4980872;28;20030;-79
2023/04/23 10:03:08;;;;;;;1.95;1.17;;;16.70;99.90;;;;;;4988608;28;20029;-78
2023/04/23 10:05:43;;;;;;;2.75;1.13;;;16.70;99.90;;;;;;4984954;28;20057;-78
2023/04/23 10:08:09;;;;;;;2.65;1.05;;;16.80;99.90;;;;;;5002303;28;20022;-78
2023/04/23 10:10:35;;;;;;;1.45;0.98;;;16.90;99.90;;;;;;4994245;28;20080;-75
2023/04/23 10:13:04;;;;;;;2.50;1.63;;;16.90;99.90;;;;;;5002253;28;20042;-77
2023/04/23 10:15:30;;;;;;;1.10;0.80;;;17.00;99.90;;;;;;5000527;28;20034;-76
2023/04/23 10:18:03;;;;;;;1.13;0.80;;;17.10;99.90;;;;;;4987793;28;20038;-77
2023/04/23 10:20:34;;;;;;;2.53;1.20;;;17.30;99.90;;;;;;4985171;28;20037;-77
2023/04/23 10:23:04;;;;;;;3.03;1.30;;;17.40;99.90;;;;;;4987924;28;20385;-77
2023/04/23 10:25:33;;;;;;;2.03;1.00;;;17.50;99.90;;;;;;4982518;28;20452;-76
2023/04/23 10:28:03;;;;;;;3.53;1.73;;;17.60;99.90;;;;;;4992340;28;20027;-76
2023/04/23 10:30:29;;;;;;;2.42;1.10;;;17.60;99.90;;;;;;4988030;28;20030;-78
2023/04/23 10:33:05;;;;;;;3.13;1.00;;;17.70;99.90;;;;;;4989938;28;20038;-77
2023/04/23 10:35:33;;;;;;;3.20;0.90;;;17.80;99.50;;;;;;4988644;28;20030;-77
2023/04/23 10:37:59;;;;;;;2.97;1.73;;;17.90;99.20;;;;;;5001893;28;20045;-76
2023/04/23 10:40:31;;;;;;;1.98;1.10;;;17.90;98.90;;;;;;4986793;28;20041;-77
2023/04/23 10:42:58;;;;;;;1.52;1.10;;;18.00;98.70;;;;;;4990239;28;20044;-76
2023/04/23 10:45:24;;;;;;;1.73;0.95;;;18.00;98.60;;;;;;4986148;28;20022;-77
2023/04/23 10:47:57;;;;;;;3.47;0.90;;;18.10;98.50;;;;;;4989057;28;20025;-76
2023/04/23 10:50:35;;;;;;;2.22;1.00;;;18.10;98.00;;;;;;5010901;23;20509;-74
2023/04/23 10:53:03;;;;;;;1.50;1.17;;;18.10;97.70;;;;;;5003891;28;20036;-74
2023/04/23 10:55:30;;;;;;;1.40;0.80;;;18.10;97.70;;;;;;5003648;28;20110;-74
2023/04/23 10:58:04;;;;;;;2.17;1.00;;;18.10;97.60;;;;;;4999052;28;20038;-75
2023/04/23 11:00:42;;;;;;;;;;;18.10;97.80;;;;;;4986156;28;20027;-76
2023/04/23 11:03:38;;;;;;;1.88;0.90;;;18.20;97.60;;;;;;4980239;28;19918;-76
2023/04/23 11:06:05;;;;;;;3.80;1.20;;;18.10;97.20;;;;;;4985609;28;20026;-76
2023/04/23 11:08:31;;;;;;;2.22;1.10;;;18.20;97.30;;;;;;4999815;28;20022;-77
2023/04/23 11:10:59;;;;;;;1.63;0.80;;;18.30;97.10;;;;;;4987749;28;20033;-76
2023/04/23 11:13:26;;;;;;;1.38;0.85;;;18.40;97.00;;;;;;4985339;28;20098;-74
2023/04/23 11:16:11;;;;;;;2.28;0.70;;;18.40;96.80;;;;;;4984913;28;20019;-74
2023/04/23 11:19:14;;;;;;;4.57;1.63;;;18.50;96.50;;;;;;4984752;28;20105;-74
2023/04/23 11:22:07;;;;;;;1.40;0.98;;;18.60;96.30;;;;;;4983642;28;20095;-75
2023/04/23 11:24:45;;;;;;;1.70;0.82;;;18.60;96.10;;;;;;5001326;28;20037;-74
2023/04/23 11:27:14;;;;;;;1.58;0.75;;;18.50;96.00;;;;;;4983345;28;20125;-74
2023/04/23 11:29:41;;;;;;;1.00;0.82;;;18.50;96.00;;;;;;4992053;28;20455;-75
2023/04/23 11:32:12;;;;;;;0.82;0.80;;;18.40;95.80;;;;;;4979203;28;20034;-74
2023/04/23 11:34:39;;;;;;;1.63;0.70;;;18.50;96.10;;;;;;5005022;28;20045;-73
2023/04/23 11:37:05;;;;;;;0.70;0.70;;;18.50;95.90;;;;;;4989683;28;20576;-73
2023/04/23 11:39:31;;;;;;;2.03;0.68;;;18.60;95.90;;;;;;4983694;28;20074;-76
2023/04/23 11:42:15;;;;;;;2.35;0.80;;;18.70;95.90;;;;;;4986389;28;20088;-73
2023/04/23 11:44:44;;;;;;;;;;;18.80;95.60;;;;;;4989008;28;20387;-74
2023/04/23 11:47:11;;;;;;;0.65;0.57;;;18.90;95.20;;;;;;4989166;28;19916;-74
2023/04/23 11:49:38;;;;;;;2.10;0.50;;;19.00;94.90;;;;;;4989860;28;20027;-74
2023/04/23 11:52:04;;;;;;;1.05;0.50;;;19.10;94.60;;;;;;4994622;28;20022;-74
2023/04/23 11:54:30;;;;;;;1.48;0.77;;;19.10;94.20;;;;;;4988514;28;20313;-74
2023/04/23 11:57:00;;;;;;;1.30;0.65;;;19.20;94.70;;;;;;5005827;28;20094;-74
2023/04/23 11:59:27;;;;;;;1.70;0.80;;;19.30;94.20;;;;;;4991731;28;20113;-74
2023/04/23 12:01:54;;;;;;;1.65;0.77;;;19.40;94.20;;;;;;4991375;28;20030;-74
2023/04/23 12:04:25;;;;;;;2.58;0.73;;;19.40;93.50;;;;;;4987600;28;20088;-74
2023/04/23 12:06:52;;;;;;;1.13;0.80;;;19.40;93.80;;;;;;4992089;28;20098;-74
2023/04/23 12:09:20;;;;;;;0.85;0.73;;;19.40;94.10;;;;;;4993371;28;20038;-74
2023/04/23 12:11:52;;;;;;;1.20;0.80;;;19.50;93.60;;;;;;4990859;28;20058;-74
2023/04/23 12:14:27;;;;;;;1.40;0.85;;;19.40;93.20;;;;;;4988756;28;20030;-74
2023/04/23 12:17:09;;;;;;;0.82;0.70;;;19.40;93.50;;;;;;4990762;28;20089;-74
2023/04/23 12:19:35;;;;;;;2.95;0.60;;;19.50;93.40;;;;;;4991180;28;20093;-74
2023/04/23 12:22:02;;;;;;;0.90;0.82;;;19.50;93.00;;;;;;4992360;28;20036;-74
2023/04/23 12:24:53;;;;;;;1.83;0.70;;;19.50;92.80;;;;;;4993720;28;20030;-74
2023/04/23 12:27:22;;;;;;;1.75;0.50;;;19.40;92.40;;;;;;4990214;28;20081;-74
2023/04/23 12:30:03;;;;;;;2.42;1.13;;;19.40;92.30;;;;;;5007108;28;20092;-74
2023/04/23 12:32:33;;;;;;;2.13;1.20;;;19.40;93.10;;;;;;5006244;28;20053;-75
2023/04/23 12:34:58;;;;;;;2.38;1.00;;;19.40;92.60;;;;;;4993020;28;20133;-74
2023/04/23 12:37:36;;;;;;;2.15;0.88;;;19.30;92.60;;;;;;4989121;28;20495;-74
2023/04/23 12:40:06;;;;;;;2.25;0.80;;;19.40;92.30;;;;;;4991506;28;20085;-75
2023/04/23 12:42:37;;;;;;;2.45;0.80;;;19.30;92.20;;;;;;5006718;28;20042;-75
2023/04/23 12:45:09;;;;;;;2.30;1.02;;;19.20;91.60;;;;;;4990611;28;20022;-75
2023/04/23 12:47:35;;;;;;;2.58;0.88;;;19.20;92.10;;;;;;4993581;28;20063;-75
2023/04/23 12:50:04;;;;;;;1.80;0.90;;;19.20;92.20;;;;;;4989017;28;20434;-75
2023/04/23 12:52:33;;;;;;;1.88;0.95;;;19.30;92.00;;;;;;4990369;28;20023;-75
2023/04/23 12:55:00;;;;;;;2.58;1.10;;;19.30;92.00;;;;;;4991737;28;20041;-75